Observations for BOSCOMBE DOWN, United Kingdom (EGDM)

EGDM 201650Z 31010KT 9999 SCT007 BKN018 19/16 Q1020 GRN 
EGDM 201550Z 30009KT 9999 FEW012 BKN018 20/16 Q1020 WHT TEMPO SCT012 GRN
EGDM 201450Z 22009KT 9999 BKN020 BKN028 21/16 Q1020 WHT NOSIG   
EGDM 201350Z 20009KT 9999 BKN022 BKN028 21/16 Q1020 WHT NOSIG   
EGDM 201250Z 22011KT 9999 SCT016 BKN021 22/16 Q1020 WHT NOSIG   
EGDM 201150Z 21010KT 9999 BKN016 19/15 Q1021 WHT NOSIG  
EGDM 201050Z 23012KT 9999 BKN017 20/15 Q1021 WHT NOSIG  
EGDM 200950Z 20009KT 9999 BKN012 19/15 Q1021 GRN BECMG BKN016 WHT   
EGDM 200915Z 20012KT 9999 FEW012 19/15 Q1021 BLU TEMPO SCT015 WHT   
EGDM 200915Z 20012KT 9999 FEW012 19/15 Q1021 BLU TEMPO SCT015 WHT
EGDM 200850Z 20010KT 9999 BKN010 18/15 Q1021 GRN BECMG SCT015 WHT   
EGDM 200819Z 21012KT 9999 BKN008 17/15 Q1021 GRN NOSIG  
EGDM 200819Z 21012KT 9999 BKN008 17/15 Q1021 GRN NOSIG
EGDM 200750Z 19010KT 9999 SCT005 BKN007 16/14 Q1021 YLO1 BECMG SCT012 GRN   
EGDM 200650Z 21008KT 9999 -DZ OVC004 15/14 Q1021 YLO2 BECMG BKN006 YLO1 
EGDM 200550Z 21007KT 9999 -DZ BKN003 OVC005 14/14 Q1021 YLO2
EGDM 200450Z AUTO 21008KT 4800 OVC001/// 14/14 Q1021
EGDM 200350Z AUTO 20006KT 1000 OVC001/// 14/14 Q1021
EGDM 200250Z AUTO 19007KT 1000 BR VV/// 14/14 Q1021 REDZ
EGDM 200150Z AUTO 18006KT 0150 -DZ VV/// 14/14 Q1021
EGDM 200050Z AUTO 19008KT 0100 FG VV/// 14/14 Q1022 
EGDM 192350Z AUTO 17004KT 4600 BR FEW019/// SCT023/// 14/14 Q1022   
EGDM 192250Z AUTO 20006KT 9999 BKN020/// 15/14 Q1022
EGDM 192150Z AUTO 20006KT 9999 FEW028/// BKN034/// 16/15 Q1023  
EGDM 192050Z AUTO 19006KT 9999 BKN034/// SCT042/// 17/16 Q1023  
EGDM 191950Z AUTO 22008KT 9999 BKN032/// 19/16 Q1022
EGDM 191850Z AUTO 20011KT 9999 BKN041/// 20/16 Q1022
EGDM 191750Z AUTO 21012KT 9999 FEW023/// SCT039/// 21/16 Q1022  
EGDM 191650Z 22009KT 9999 FEW020 BKN040 22/17 Q1022 BLU NOSIG